Mc Carley, Mississippi
Current Conditions -  °F | °C
As of 1:53 AM on Monday 24 Nov 2014 (Local Time) from KGWO Reporting Station
Clear Clear  
Wind Chill: 17°   Ceiling: Unl
Heat Index: 17°   Visibility: 10mi
Dew Point: 13°   Wind: 14mph
Humidity: 78%   Direction: 220°SW
Pressure: 29.6"   Gusts: NA
Location:  33.5217°N, 89.8329°W
Report Text: KGWO 240753Z AUTO 22012KT 10SM CLR 17/13 A2960 RMK AO2 SLP021 T01670128 TSNO
Loading
Personal Weather Stations






























Interactive Weather Map New forecast layout! Learn more

10-Day Weather Forecast

Advertisements
Track Severe Weather on mobile